Time;durP1;ratioP1;P1;durP2;ratioP2;P2;SDS_P1;SDS_P2;PMS_P1;PMS_P2;Temp;Humidity;BMP_temperature;BMP_pressure;BME280_temperature;BME280_humidity;BME280_pressure;Samples;Min_cycle;Max_cycle;Signal;HPM_P1;HPM_P2
2024/01/28 00:01:00;;;;;;;1.23;1.13;;;;;;;-146.30;100.00;58188.94;10399539;28;20471;-84
2024/01/28 00:06:03;;;;;;;0.15;0.08;;;;;;;-146.30;100.00;58188.94;10402679;28;20045;-84
2024/01/28 00:11:05;;;;;;;0.57;0.55;;;;;;;-146.30;100.00;58188.94;10366542;28;20058;-84
2024/01/28 00:16:13;;;;;;;0.03;0.03;;;;;;;-146.30;100.00;58188.94;10369555;28;20386;-84
2024/01/28 00:21:15;;;;;;;0.40;0.35;;;;;;;-146.30;100.00;58188.94;10384567;28;20085;-84
2024/01/28 00:26:16;;;;;;;0.17;0.10;;;;;;;-146.30;100.00;58188.94;10401472;28;20105;-83
2024/01/28 00:31:18;;;;;;;4.75;1.17;;;;;;;-146.30;100.00;58188.94;10385746;28;21749;-83
2024/01/28 00:36:20;;;;;;;0.20;0.20;;;;;;;-146.30;100.00;58188.94;10366501;28;20049;-84
2024/01/28 00:41:28;;;;;;;0.10;0.10;;;;;;;-146.30;100.00;58188.94;10385871;28;20049;-83
2024/01/28 00:46:32;;;;;;;0.00;0.00;;;;;;;-146.30;100.00;58188.94;10360363;28;20074;-84
2024/01/28 00:51:33;;;;;;;0.00;0.00;;;;;;;-146.30;100.00;58188.94;10384793;28;20037;-84
2024/01/28 00:56:35;;;;;;;0.10;0.10;;;;;;;-146.30;100.00;58188.94;10370170;28;20585;-84
2024/01/28 01:01:37;;;;;;;0.20;0.20;;;;;;;-146.30;100.00;58188.94;10370843;28;20145;-83
2024/01/28 01:06:42;;;;;;;1.08;1.08;;;;;;;-146.30;100.00;58188.94;10352431;28;20042;-83
2024/01/28 01:11:45;;;;;;;0.20;0.20;;;;;;;-146.30;100.00;58188.94;10370264;28;20050;-82
2024/01/28 01:16:47;;;;;;;0.05;0.05;;;;;;;-146.30;100.00;58188.94;10370615;28;20046;-84
2024/01/28 01:21:50;;;;;;;0.00;0.00;;;;;;;-146.30;100.00;58188.94;10385860;28;20046;-84
2024/01/28 01:26:52;;;;;;;0.13;0.13;;;;;;;-146.30;100.00;58188.94;10369728;28;20133;-83
2024/01/28 01:31:54;;;;;;;0.00;0.00;;;;;;;-146.30;100.00;58188.94;10386466;28;20751;-83
2024/01/28 01:36:56;;;;;;;0.30;0.30;;;;;;;-146.30;100.00;58188.94;10363033;28;20590;-83
2024/01/28 01:41:59;;;;;;;0.10;0.10;;;;;;;-146.30;100.00;58188.94;10377047;28;20073;-83
2024/01/28 01:47:01;;;;;;;1.65;1.38;;;;;;;-146.30;100.00;58188.94;10356039;28;20052;-83
2024/01/28 01:52:04;;;;;;;1.10;0.85;;;;;;;-146.30;100.00;58188.94;10389813;28;20042;-83
2024/01/28 01:57:06;;;;;;;0.43;0.43;;;;;;;-146.30;100.00;58188.94;10371787;28;20073;-82
2024/01/28 02:02:09;;;;;;;0.35;0.35;;;;;;;-146.30;100.00;58188.94;10368837;28;20518;-83
2024/01/28 02:07:11;;;;;;;0.00;0.00;;;;;;;-146.30;100.00;58188.94;10352939;28;20447;-82
2024/01/28 02:12:13;;;;;;;0.00;0.00;;;;;;;-146.30;100.00;58188.94;10367760;28;20160;-83
2024/01/28 02:17:15;;;;;;;0.47;0.20;;;;;;;-146.30;100.00;58188.94;10353606;28;20072;-82
2024/01/28 02:22:16;;;;;;;0.10;0.10;;;;;;;-146.30;100.00;58188.94;10377940;28;20510;-82
2024/01/28 02:27:18;;;;;;;0.77;0.77;;;;;;;-146.30;100.00;58188.94;10376776;28;20041;-82
2024/01/28 02:32:20;;;;;;;0.10;0.10;;;;;;;-146.30;100.00;58188.94;10391122;28;20057;-82
2024/01/28 02:37:22;;;;;;;0.30;0.30;;;;;;;-146.30;100.00;58188.94;10379222;28;20050;-82
2024/01/28 02:42:23;;;;;;;1.02;0.55;;;;;;;-146.30;100.00;58188.94;10370599;28;20576;-82
2024/01/28 02:47:25;;;;;;;0.40;0.40;;;;;;;-146.30;100.00;58188.94;10360142;28;20091;-82
2024/01/28 02:52:27;;;;;;;0.05;0.05;;;;;;;-146.30;100.00;58188.94;10389752;28;20116;-82
2024/01/28 02:57:28;;;;;;;0.00;0.00;;;;;;;-146.30;100.00;58188.94;10359000;28;20038;-82
2024/01/28 03:02:30;;;;;;;0.05;0.05;;;;;;;-146.30;100.00;58188.94;10382144;28;20033;-82
2024/01/28 03:07:32;;;;;;;0.00;0.00;;;;;;;-146.30;100.00;58188.94;10367901;28;20096;-82
2024/01/28 03:12:34;;;;;;;0.28;0.28;;;;;;;-146.30;100.00;58188.94;10364099;28;20089;-83
2024/01/28 03:17:37;;;;;;;0.55;0.55;;;;;;;-146.30;100.00;58188.94;10365317;28;20531;-82
2024/01/28 03:22:39;;;;;;;0.70;0.70;;;;;;;-146.30;100.00;58188.94;10367995;28;20041;-83
2024/01/28 03:27:40;;;;;;;0.00;0.00;;;;;;;-146.30;100.00;58188.94;10365624;28;20386;-83
2024/01/28 03:32:42;;;;;;;0.00;0.00;;;;;;;-146.30;100.00;58188.94;10406761;28;20053;-83
2024/01/28 03:37:46;;;;;;;0.13;0.13;;;;;;;-146.30;100.00;58188.94;10401853;28;20068;-83
2024/01/28 03:42:48;;;;;;;0.20;0.20;;;;;;;-146.30;100.00;58188.94;10387991;28;20073;-83
2024/01/28 03:47:50;;;;;;;1.17;0.80;;;;;;;-146.30;100.00;58188.94;10377708;28;20105;-83
2024/01/28 03:52:51;;;;;;;0.00;0.00;;;;;;;-146.30;100.00;58188.94;10371826;28;20179;-84
2024/01/28 03:57:53;;;;;;;0.20;0.20;;;;;;;-146.30;100.00;58188.94;10391749;28;20065;-84
2024/01/28 04:03:00;;;;;;;0.00;0.00;;;;;;;-146.30;100.00;58188.94;10391129;28;20512;-84
2024/01/28 04:08:03;;;;;;;1.27;0.85;;;;;;;-146.30;100.00;58188.94;10390033;28;20053;-84
2024/01/28 04:13:04;;;;;;;0.00;0.00;;;;;;;-146.30;100.00;58188.94;10392831;28;20053;-84
2024/01/28 04:18:06;;;;;;;0.00;0.00;;;;;;;-146.30;100.00;58188.94;10392260;28;20132;-83
2024/01/28 04:23:08;;;;;;;0.00;0.00;;;;;;;-146.30;100.00;58188.94;10393765;28;20411;-83
2024/01/28 04:28:10;;;;;;;2.53;1.00;;;;;;;-146.30;100.00;58188.94;10383049;28;20132;-84
2024/01/28 04:33:12;;;;;;;0.00;0.00;;;;;;;-146.30;100.00;58188.94;10387694;28;20074;-84
2024/01/28 04:38:14;;;;;;;1.08;0.63;;;;;;;-146.30;100.00;58188.94;10358974;28;20053;-84
2024/01/28 04:43:15;;;;;;;0.10;0.10;;;;;;;-146.30;100.00;58188.94;10394525;28;20120;-84
2024/01/28 04:48:19;;;;;;;0.10;0.10;;;;;;;-146.30;100.00;58188.94;10371786;28;20180;-84
2024/01/28 04:53:22;;;;;;;0.20;0.20;;;;;;;-146.30;100.00;58188.94;10371931;28;20142;-84
2024/01/28 04:58:23;;;;;;;0.20;0.20;;;;;;;-146.30;100.00;58188.94;10354728;28;20046;-84
2024/01/28 05:03:25;;;;;;;0.10;0.10;;;;;;;-146.30;100.00;58188.94;10369276;28;20046;-83
2024/01/28 05:08:27;;;;;;;0.00;0.00;;;;;;;-146.30;100.00;58188.94;10362140;28;20038;-83
2024/01/28 05:13:29;;;;;;;0.45;0.45;;;;;;;-146.30;100.00;58188.94;10383142;28;20045;-82
2024/01/28 05:18:31;;;;;;;0.43;0.40;;;;;;;-146.30;100.00;58188.94;10380064;28;20069;-82
2024/01/28 05:23:33;;;;;;;0.00;0.00;;;;;;;-146.30;100.00;58188.94;10364003;28;20050;-82
2024/01/28 05:28:34;;;;;;;0.45;0.45;;;;;;;-146.30;100.00;58188.94;10370204;28;20073;-81
2024/01/28 05:33:40;;;;;;;0.13;0.10;;;;;;;-146.30;100.00;58188.94;10367193;28;20038;-81
2024/01/28 05:38:44;;;;;;;0.10;0.10;;;;;;;-146.30;100.00;58188.94;10353340;28;20448;-80
2024/01/28 05:43:46;;;;;;;0.00;0.00;;;;;;;-146.30;100.00;58188.94;10376340;28;20092;-81
2024/01/28 05:48:47;;;;;;;0.30;0.30;;;;;;;-146.30;100.00;58188.94;10370649;28;20052;-80
2024/01/28 05:53:49;;;;;;;0.20;0.20;;;;;;;-146.30;100.00;58188.94;10371143;28;20061;-80
2024/01/28 05:58:51;;;;;;;2.50;1.55;;;;;;;-146.30;100.00;58188.94;10364183;28;20138;-82
2024/01/28 06:03:53;;;;;;;0.00;0.00;;;;;;;-146.30;100.00;58188.94;10384588;28;20095;-81
2024/01/28 06:08:55;;;;;;;0.38;0.32;;;;;;;-146.30;100.00;58188.94;10404297;28;20049;-81
2024/01/28 06:13:56;;;;;;;0.45;0.45;;;;;;;-146.30;100.00;58188.94;10373480;28;20055;-81
2024/01/28 06:18:58;;;;;;;1.25;0.75;;;;;;;-146.30;100.00;58188.94;10354411;28;20501;-80
2024/01/28 06:24:00;;;;;;;0.28;0.28;;;;;;;-146.30;100.00;58188.94;10380989;28;20085;-80
2024/01/28 06:29:02;;;;;;;0.38;0.38;;;;;;;-146.30;100.00;58188.94;10389444;28;20103;-80
2024/01/28 06:34:04;;;;;;;0.10;0.10;;;;;;;-146.30;100.00;58188.94;10381162;28;20056;-80
2024/01/28 06:39:07;;;;;;;0.93;0.90;;;;;;;-146.30;100.00;58188.94;10373121;28;20137;-81
2024/01/28 06:44:09;;;;;;;0.00;0.00;;;;;;;-146.30;100.00;58188.94;10392043;28;20046;-81
2024/01/28 06:49:11;;;;;;;0.55;0.47;;;;;;;-146.30;100.00;58188.94;10383639;28;20042;-80
2024/01/28 06:54:15;;;;;;;0.98;0.98;;;;;;;-146.30;100.00;58188.94;10384697;28;20050;-80
2024/01/28 06:59:20;;;;;;;0.00;0.00;;;;;;;-146.30;100.00;58188.94;10366461;28;20127;-80
2024/01/28 07:04:21;;;;;;;0.10;0.10;;;;;;;-146.30;100.00;58188.94;10371117;28;20565;-80
2024/01/28 07:09:23;;;;;;;0.22;0.22;;;;;;;-146.30;100.00;58188.94;10363876;28;20520;-80
2024/01/28 07:14:25;;;;;;;0.13;0.13;;;;;;;-146.30;100.00;58188.94;10390662;28;20084;-81
2024/01/28 07:19:27;;;;;;;0.20;0.20;;;;;;;-146.30;100.00;58188.94;10356763;28;20057;-82
2024/01/28 07:24:29;;;;;;;0.00;0.00;;;;;;;-146.30;100.00;58188.94;10382979;28;20042;-80
2024/01/28 07:29:31;;;;;;;0.43;0.43;;;;;;;-146.30;100.00;58188.94;10358816;28;20045;-81
2024/01/28 07:34:32;;;;;;;0.00;0.00;;;;;;;-146.30;100.00;58188.94;10407516;28;20088;-80
2024/01/28 07:39:34;;;;;;;0.15;0.15;;;;;;;-146.30;100.00;58188.94;10380771;28;20050;-80
2024/01/28 07:44:36;;;;;;;0.15;0.15;;;;;;;-146.30;100.00;58188.94;10378939;28;20049;-81
2024/01/28 07:49:38;;;;;;;0.52;0.30;;;;;;;-146.30;100.00;58188.94;10369738;28;20453;-81
2024/01/28 07:54:39;;;;;;;0.28;0.25;;;;;;;-146.30;100.00;58188.94;10381903;28;20054;-81
2024/01/28 07:59:41;;;;;;;0.10;0.10;;;;;;;-146.30;100.00;58188.94;10379273;28;20073;-80
2024/01/28 08:04:45;;;;;;;0.00;0.00;;;;;;;-146.30;100.00;58188.94;10369134;28;20120;-80
2024/01/28 08:09:46;;;;;;;0.10;0.10;;;;;;;-146.30;100.00;58188.94;10351146;28;20140;-81
2024/01/28 08:14:48;;;;;;;0.15;0.10;;;;;;;-146.30;100.00;58188.94;10378310;28;20054;-80
2024/01/28 08:19:54;;;;;;;0.95;0.57;;;;;;;-146.30;100.00;58188.94;10392230;28;20064;-81
2024/01/28 08:24:55;;;;;;;0.32;0.25;;;;;;;-146.30;100.00;58188.94;10388176;28;20065;-80
2024/01/28 08:29:57;;;;;;;0.10;0.10;;;;;;;-146.30;100.00;58188.94;10388861;28;20386;-81
2024/01/28 08:34:59;;;;;;;0.08;0.08;;;;;;;-146.30;100.00;58188.94;10388052;28;20108;-81
2024/01/28 08:40:04;;;;;;;0.30;0.30;;;;;;;-146.30;100.00;58188.94;10388911;28;20049;-81
2024/01/28 08:45:06;;;;;;;0.03;0.03;;;;;;;-146.30;100.00;58188.94;10385031;28;20135;-81
2024/01/28 08:50:09;;;;;;;0.00;0.00;;;;;;;-146.30;100.00;58188.94;10373988;28;20049;-81
2024/01/28 08:55:11;;;;;;;0.22;0.20;;;;;;;-146.30;100.00;58188.94;10396782;28;20080;-81
2024/01/28 09:00:13;;;;;;;0.32;0.25;;;;;;;-146.30;100.00;58188.94;10353093;28;20050;-82
2024/01/28 09:05:16;;;;;;;0.08;0.08;;;;;;;-146.30;100.00;58188.94;10389259;28;20042;-82
2024/01/28 09:10:19;;;;;;;3.10;0.32;;;;;;;-146.30;100.00;58188.94;10361276;28;20050;-83
2024/01/28 09:15:20;;;;;;;0.22;0.10;;;;;;;-146.30;100.00;58188.94;10370216;28;20123;-85
2024/01/28 09:20:23;;;;;;;0.00;0.00;;;;;;;-146.30;100.00;58188.94;10370778;28;20060;-85
2024/01/28 09:25:28;;;;;;;2.60;1.65;;;;;;;-146.30;100.00;58188.94;10378938;28;20120;-86
2024/01/28 09:30:30;;;;;;;12.48;0.50;;;;;;;-146.30;100.00;58188.94;10376794;28;20061;-86
2024/01/28 09:35:32;;;;;;;0.00;0.00;;;;;;;-146.30;100.00;58188.94;10369058;28;20050;-86
2024/01/28 09:40:34;;;;;;;0.08;0.08;;;;;;;-146.30;100.00;58188.94;10372627;28;20360;-86
2024/01/28 09:45:36;;;;;;;0.38;0.10;;;;;;;-146.30;100.00;58188.94;10364689;28;20077;-87
2024/01/28 09:50:39;;;;;;;0.10;0.10;;;;;;;-146.30;100.00;58188.94;10354188;28;20584;-85
2024/01/28 09:55:41;;;;;;;0.40;0.40;;;;;;;-146.30;100.00;58188.94;10379071;28;20050;-85
2024/01/28 10:00:43;;;;;;;0.03;0.03;;;;;;;-146.30;100.00;58188.94;10388911;28;20054;-84
2024/01/28 10:05:44;;;;;;;0.70;0.45;;;;;;;-146.30;100.00;58188.94;10370169;28;20045;-84
2024/01/28 10:10:46;;;;;;;0.15;0.15;;;;;;;-146.30;100.00;58188.94;10379199;28;20049;-83
2024/01/28 10:15:55;;;;;;;0.15;0.10;;;;;;;-146.30;100.00;58188.94;10358673;28;20400;-83
2024/01/28 10:20:57;;;;;;;0.15;0.15;;;;;;;-146.30;100.00;58188.94;10371215;28;20054;-83
2024/01/28 10:26:01;;;;;;;0.00;0.00;;;;;;;-146.30;100.00;58188.94;10383659;28;20121;-83
2024/01/28 10:31:03;;;;;;;0.10;0.10;;;;;;;-146.30;100.00;58188.94;10383932;28;20323;-83
2024/01/28 10:36:08;;;;;;;0.10;0.10;;;;;;;-146.30;100.00;58188.94;10377598;28;20057;-81
2024/01/28 10:41:17;;;;;;;0.90;0.20;;;;;;;-146.30;100.00;58188.94;10376618;28;20056;-81
2024/01/28 10:46:26;;;;;;;0.03;0.03;;;;;;;-146.30;100.00;58188.94;10394759;28;20049;-82
2024/01/28 10:51:29;;;;;;;0.17;0.15;;;;;;;-146.30;100.00;58188.94;10372350;28;20501;-81
2024/01/28 10:56:36;;;;;;;0.40;0.28;;;;;;;-146.30;100.00;58188.94;10372720;28;20056;-80
2024/01/28 11:01:38;;;;;;;0.15;0.15;;;;;;;-146.30;100.00;58188.94;10381947;28;20079;-82
2024/01/28 11:06:41;;;;;;;0.00;0.00;;;;;;;-146.30;100.00;58188.94;10377650;28;20511;-82
2024/01/28 11:11:42;;;;;;;0.30;0.30;;;;;;;-146.30;100.00;58188.94;10377521;28;20497;-81
2024/01/28 11:16:46;;;;;;;0.68;0.47;;;;;;;-146.30;100.00;58188.94;10365559;28;20046;-82
2024/01/28 11:21:52;;;;;;;0.00;0.00;;;;;;;-146.30;100.00;58188.94;10394819;28;20401;-83
2024/01/28 11:26:58;;;;;;;0.35;0.30;;;;;;;-146.30;100.00;58188.94;10394494;28;20041;-83
2024/01/28 11:32:04;;;;;;;0.15;0.15;;;;;;;-146.30;100.00;58188.94;10394546;28;20145;-84
2024/01/28 11:37:08;;;;;;;3.03;0.60;;;;;;;-146.30;100.00;58188.94;10365414;28;20404;-84
2024/01/28 11:42:09;;;;;;;0.30;0.25;;;;;;;-146.30;100.00;58188.94;10368873;28;20081;-85
2024/01/28 11:47:14;;;;;;;1.15;0.75;;;;;;;-146.30;100.00;58188.94;10351572;28;20046;-85
2024/01/28 11:52:16;;;;;;;0.30;0.30;;;;;;;-146.30;100.00;58188.94;10376598;28;20487;-86
2024/01/28 11:57:18;;;;;;;0.70;0.55;;;;;;;-146.30;100.00;58188.94;10373705;28;20131;-84
2024/01/28 12:02:20;;;;;;;0.40;0.40;;;;;;;-146.30;100.00;58188.94;10395689;28;20046;-84
2024/01/28 12:07:22;;;;;;;0.10;0.10;;;;;;;-146.30;100.00;58188.94;10382269;28;20118;-85
2024/01/28 12:12:24;;;;;;;0.10;0.10;;;;;;;-146.30;100.00;58188.94;10369893;28;20042;-84
2024/01/28 12:17:26;;;;;;;3.08;0.73;;;;;;;-146.30;100.00;58188.94;10370328;28;20054;-84
2024/01/28 12:22:27;;;;;;;0.10;0.08;;;;;;;-146.30;100.00;58188.94;10369763;28;20390;-84
2024/01/28 12:27:29;;;;;;;1.88;0.47;;;;;;;-146.30;100.00;58188.94;10357247;28;20085;-84
2024/01/28 12:32:31;;;;;;;0.10;0.10;;;;;;;-146.30;100.00;58188.94;10384839;28;20157;-85
2024/01/28 12:37:35;;;;;;;0.17;0.17;;;;;;;-146.30;100.00;58188.94;10355880;28;20068;-85
2024/01/28 12:42:39;;;;;;;3.95;1.10;;;;;;;-146.30;100.00;58188.94;10376420;28;20085;-83
2024/01/28 12:47:42;;;;;;;0.00;0.00;;;;;;;-146.30;100.00;58188.94;10380530;28;20097;-84
2024/01/28 12:52:44;;;;;;;0.55;0.20;;;;;;;-146.30;100.00;58188.94;10375108;28;20504;-84
2024/01/28 12:57:45;;;;;;;0.57;0.38;;;;;;;-146.30;100.00;58188.94;10396442;28;20050;-84
2024/01/28 13:02:48;;;;;;;1.65;0.45;;;;;;;-146.30;100.00;58188.94;10378172;28;20046;-85
2024/01/28 13:07:50;;;;;;;0.63;0.57;;;;;;;-146.30;100.00;58188.94;10362354;28;20045;-84
2024/01/28 13:12:53;;;;;;;0.45;0.17;;;;;;;-146.30;100.00;58188.94;10379376;28;20049;-85
2024/01/28 13:17:54;;;;;;;0.43;0.40;;;;;;;-146.30;100.00;58188.94;10370793;28;20543;-84
2024/01/28 13:22:56;;;;;;;0.40;0.10;;;;;;;-146.30;100.00;58188.94;10369534;28;20085;-85
2024/01/28 13:27:58;;;;;;;0.08;0.08;;;;;;;-146.30;100.00;58188.94;10357532;28;20049;-85
2024/01/28 13:33:00;;;;;;;0.10;0.10;;;;;;;-146.30;100.00;58188.94;10356163;28;20425;-84
2024/01/28 13:38:03;;;;;;;1.00;0.28;;;;;;;-146.30;100.00;58188.94;10386579;28;20045;-85
2024/01/28 13:43:05;;;;;;;0.10;0.10;;;;;;;-146.30;100.00;58188.94;10384740;28;20058;-85
2024/01/28 13:48:07;;;;;;;0.00;0.00;;;;;;;-146.30;100.00;58188.94;10369018;28;20049;-85
2024/01/28 13:53:10;;;;;;;1.00;0.47;;;;;;;-146.30;100.00;58188.94;10366646;28;20046;-85
2024/01/28 13:58:12;;;;;;;1.10;0.25;;;;;;;-146.30;100.00;58188.94;10381563;28;20236;-86
2024/01/28 14:03:14;;;;;;;8.20;0.45;;;;;;;-146.30;100.00;58188.94;10384405;28;20046;-85
2024/01/28 14:08:16;;;;;;;0.45;0.10;;;;;;;-146.30;100.00;58188.94;10356731;28;20068;-86
2024/01/28 14:13:18;;;;;;;2.50;0.47;;;;;;;-146.30;100.00;58188.94;10375656;28;20050;-86
2024/01/28 14:18:20;;;;;;;0.32;0.15;;;;;;;-146.30;100.00;58188.94;10385626;28;20044;-85
2024/01/28 14:23:21;;;;;;;0.15;0.10;;;;;;;-146.30;100.00;58188.94;10383527;28;20057;-86
2024/01/28 14:28:23;;;;;;;0.10;0.10;;;;;;;-146.30;100.00;58188.94;10348344;28;20049;-86
2024/01/28 14:33:25;;;;;;;0.80;0.55;;;;;;;-146.30;100.00;58188.94;10389291;28;20120;-86
2024/01/28 14:38:27;;;;;;;0.00;0.00;;;;;;;-146.30;100.00;58188.94;10363607;28;20153;-86
2024/01/28 14:43:28;;;;;;;2.00;0.20;;;;;;;-146.30;100.00;58188.94;10369337;28;20685;-86
2024/01/28 14:48:30;;;;;;;1.70;0.17;;;;;;;-146.30;100.00;58188.94;10376349;28;20458;-86
2024/01/28 14:53:33;;;;;;;0.20;0.05;;;;;;;-146.30;100.00;58188.94;10396211;28;20042;-86
2024/01/28 14:58:35;;;;;;;0.95;0.63;;;;;;;-146.30;100.00;58188.94;10368965;28;20046;-87
2024/01/28 15:03:36;;;;;;;1.23;0.20;;;;;;;-146.30;100.00;58188.94;10377160;28;20148;-87
2024/01/28 15:08:38;;;;;;;0.40;0.30;;;;;;;-146.30;100.00;58188.94;10391095;28;20045;-86
2024/01/28 15:13:41;;;;;;;0.10;0.10;;;;;;;-146.30;100.00;58188.94;10385594;28;20125;-86
2024/01/28 15:18:44;;;;;;;0.10;0.10;;;;;;;-146.30;100.00;58188.94;10355527;28;20141;-86
2024/01/28 15:23:48;;;;;;;0.20;0.20;;;;;;;-146.30;100.00;58188.94;10374671;28;20053;-86
2024/01/28 15:28:50;;;;;;;1.13;0.85;;;;;;;-146.30;100.00;58188.94;10373845;28;20068;-86
2024/01/28 15:33:51;;;;;;;0.52;0.52;;;;;;;-146.30;100.00;58188.94;10387241;28;20394;-86
2024/01/28 15:38:53;;;;;;;0.20;0.20;;;;;;;-146.30;100.00;58188.94;10352027;28;20046;-86
2024/01/28 15:43:55;;;;;;;0.20;0.20;;;;;;;-146.30;100.00;58188.94;10369022;28;20468;-86
2024/01/28 15:48:57;;;;;;;0.13;0.13;;;;;;;-146.30;100.00;58188.94;10367118;28;20511;-86
2024/01/28 15:53:59;;;;;;;0.73;0.35;;;;;;;-146.30;100.00;58188.94;10371890;28;20065;-86
2024/01/28 15:59:01;;;;;;;0.15;0.13;;;;;;;-146.30;100.00;58188.94;10371530;28;20038;-86
2024/01/28 16:04:03;;;;;;;0.10;0.10;;;;;;;-146.30;100.00;58188.94;10382764;28;20081;-86
2024/01/28 16:09:05;;;;;;;0.40;0.38;;;;;;;-146.30;100.00;58188.94;10365751;28;20568;-86
2024/01/28 16:14:06;;;;;;;0.65;0.22;;;;;;;-146.30;100.00;58188.94;10363065;28;20065;-86
2024/01/28 16:19:08;;;;;;;0.38;0.30;;;;;;;-146.30;100.00;58188.94;10362536;28;20358;-86
2024/01/28 16:24:12;;;;;;;0.45;0.32;;;;;;;-146.30;100.00;58188.94;10364521;28;20081;-86
2024/01/28 16:29:14;;;;;;;0.30;0.20;;;;;;;-146.30;100.00;58188.94;10355070;28;20501;-86
2024/01/28 16:34:15;;;;;;;0.00;0.00;;;;;;;-146.30;100.00;58188.94;10367323;28;20046;-86
2024/01/28 16:39:17;;;;;;;0.05;0.05;;;;;;;-146.30;100.00;58188.94;10366804;28;20448;-86
2024/01/28 16:44:19;;;;;;;0.35;0.20;;;;;;;-146.30;100.00;58188.94;10360956;28;20052;-86
2024/01/28 16:49:21;;;;;;;0.22;0.10;;;;;;;-146.30;100.00;58188.94;10366704;28;20444;-86
2024/01/28 16:54:23;;;;;;;0.10;0.10;;;;;;;-146.30;100.00;58188.94;10380565;28;20188;-86
2024/01/28 16:59:25;;;;;;;5.05;0.65;;;;;;;-146.30;100.00;58188.94;10388390;28;20161;-86
2024/01/28 17:04:27;;;;;;;1.42;1.33;;;;;;;-146.30;100.00;58188.94;10371417;28;20065;-86
2024/01/28 17:09:29;;;;;;;1.00;0.57;;;;;;;-146.30;100.00;58188.94;10370116;28;20042;-86
2024/01/28 17:14:30;;;;;;;0.25;0.25;;;;;;;-146.30;100.00;58188.94;10371138;28;20123;-86
2024/01/28 17:19:32;;;;;;;0.10;0.10;;;;;;;-146.30;100.00;58188.94;10373156;28;20129;-86
2024/01/28 17:24:35;;;;;;;0.20;0.20;;;;;;;-146.30;100.00;58188.94;10373669;28;20061;-86
2024/01/28 17:29:37;;;;;;;0.30;0.20;;;;;;;-146.30;100.00;58188.94;10369097;28;20108;-85
2024/01/28 17:34:39;;;;;;;0.17;0.15;;;;;;;-146.30;100.00;58188.94;10381505;28;20476;-85
2024/01/28 17:39:41;;;;;;;0.20;0.13;;;;;;;-146.30;100.00;58188.94;10369224;28;20400;-85
2024/01/28 17:44:43;;;;;;;0.17;0.08;;;;;;;-146.30;100.00;58188.94;10378690;28;20049;-84
2024/01/28 17:49:45;;;;;;;0.20;0.20;;;;;;;-146.30;100.00;58188.94;10364647;28;20085;-84
2024/01/28 17:54:47;;;;;;;0.00;0.00;;;;;;;-146.30;100.00;58188.94;10400491;28;20053;-84
2024/01/28 17:59:48;;;;;;;0.35;0.35;;;;;;;-146.30;100.00;58188.94;10379729;28;20037;-85
2024/01/28 18:04:51;;;;;;;0.00;0.00;;;;;;;-146.30;100.00;58188.94;10382883;28;20482;-85
2024/01/28 18:09:53;;;;;;;0.38;0.10;;;;;;;-146.30;100.00;58188.94;10360025;28;20517;-84
2024/01/28 18:14:54;;;;;;;0.25;0.20;;;;;;;-146.30;100.00;58188.94;10396657;28;20498;-85
2024/01/28 18:19:57;;;;;;;0.17;0.17;;;;;;;-146.30;100.00;58188.94;10361567;28;20057;-85
2024/01/28 18:24:59;;;;;;;4.78;1.27;;;;;;;-146.30;100.00;58188.94;10375686;28;20127;-85
2024/01/28 18:30:01;;;;;;;2.30;0.95;;;;;;;-146.30;100.00;58188.94;10392027;28;20112;-86
2024/01/28 18:35:04;;;;;;;1.77;1.38;;;;;;;-146.30;100.00;58188.94;10364244;28;20137;-86
2024/01/28 18:40:09;;;;;;;1.85;1.35;;;;;;;-146.30;100.00;58188.94;10350499;28;20132;-86
2024/01/28 18:45:11;;;;;;;2.15;0.98;;;;;;;-146.30;100.00;58188.94;10398763;28;20059;-85
2024/01/28 18:50:12;;;;;;;0.40;0.40;;;;;;;-146.30;100.00;58188.94;10388603;28;20441;-86
2024/01/28 18:55:15;;;;;;;0.22;0.20;;;;;;;-146.30;100.00;58188.94;10384252;28;20073;-85
2024/01/28 19:00:17;;;;;;;0.20;0.20;;;;;;;-146.30;100.00;58188.94;10364023;28;20493;-85
2024/01/28 19:05:19;;;;;;;0.80;0.30;;;;;;;-146.30;100.00;58188.94;10387551;28;20390;-85
2024/01/28 19:10:21;;;;;;;2.08;0.32;;;;;;;-146.30;100.00;58188.94;10385937;28;20436;-85
2024/01/28 19:15:23;;;;;;;0.25;0.20;;;;;;;-146.30;100.00;58188.94;10374452;28;20140;-85
2024/01/28 19:20:25;;;;;;;0.10;0.10;;;;;;;-146.30;100.00;58188.94;10367386;28;20068;-85
2024/01/28 19:25:27;;;;;;;0.20;0.10;;;;;;;-146.30;100.00;58188.94;10382021;28;20037;-86
2024/01/28 19:30:29;;;;;;;0.13;0.13;;;;;;;-146.30;100.00;58188.94;10354391;28;20065;-85
2024/01/28 19:35:32;;;;;;;0.73;0.50;;;;;;;-146.30;100.00;58188.94;10366836;28;20413;-85
2024/01/28 19:40:33;;;;;;;0.40;0.35;;;;;;;-146.30;100.00;58188.94;10350628;28;20052;-85
2024/01/28 19:45:35;;;;;;;0.00;0.00;;;;;;;-146.30;100.00;58188.94;10368399;28;20050;-86
2024/01/28 19:50:38;;;;;;;2.13;0.65;;;;;;;-146.30;100.00;58188.94;10366322;28;20050;-85
2024/01/28 19:55:40;;;;;;;0.20;0.10;;;;;;;-146.30;100.00;58188.94;10366279;28;20068;-85
2024/01/28 20:00:42;;;;;;;1.38;0.77;;;;;;;-146.30;100.00;58188.94;10359486;28;20053;-85
2024/01/28 20:05:44;;;;;;;0.35;0.30;;;;;;;-146.30;100.00;58188.94;10359068;28;20457;-85
2024/01/28 20:10:48;;;;;;;0.00;0.00;;;;;;;-146.30;100.00;58188.94;10355355;28;20165;-85
2024/01/28 20:15:50;;;;;;;0.10;0.10;;;;;;;-146.30;100.00;58188.94;10377530;28;20049;-85
2024/01/28 20:20:55;;;;;;;0.90;0.38;;;;;;;-146.30;100.00;58188.94;10374787;28;20046;-85
2024/01/28 20:25:58;;;;;;;0.35;0.20;;;;;;;-146.30;100.00;58188.94;10395811;28;20743;-85
2024/01/28 20:31:00;;;;;;;2.15;0.93;;;;;;;-146.30;100.00;58188.94;10376151;28;20408;-84
2024/01/28 20:36:02;;;;;;;0.93;0.70;;;;;;;-146.30;100.00;58188.94;10381563;28;20060;-85
2024/01/28 20:41:04;;;;;;;0.20;0.10;;;;;;;-146.30;100.00;58188.94;10384645;28;20512;-84
2024/01/28 20:46:06;;;;;;;1.75;0.20;;;;;;;-146.30;100.00;58188.94;10399219;28;20045;-85
2024/01/28 20:51:08;;;;;;;0.13;0.13;;;;;;;-146.30;100.00;58188.94;10369492;28;20045;-85
2024/01/28 20:56:11;;;;;;;0.10;0.10;;;;;;;-146.30;100.00;58188.94;10383959;28;20394;-85
2024/01/28 21:01:13;;;;;;;0.08;0.08;;;;;;;-146.30;100.00;58188.94;10366271;28;20501;-85
2024/01/28 21:06:15;;;;;;;1.90;0.50;;;;;;;-146.30;100.00;58188.94;10373497;28;20056;-84
2024/01/28 21:11:17;;;;;;;0.40;0.40;;;;;;;-146.30;100.00;58188.94;10374259;28;20065;-84
2024/01/28 21:16:19;;;;;;;0.00;0.00;;;;;;;-146.30;100.00;58188.94;10384154;28;20060;-84
2024/01/28 21:21:20;;;;;;;1.50;0.77;;;;;;;-146.30;100.00;58188.94;10352974;28;20046;-85
2024/01/28 21:26:22;;;;;;;0.22;0.17;;;;;;;-146.30;100.00;58188.94;10369234;28;20104;-85
2024/01/28 21:31:24;;;;;;;0.20;0.20;;;;;;;-146.30;100.00;58188.94;10385938;28;20509;-85
2024/01/28 21:36:25;;;;;;;0.57;0.22;;;;;;;-146.30;100.00;58188.94;10387063;28;20133;-84
2024/01/28 21:41:27;;;;;;;0.30;0.20;;;;;;;-146.30;100.00;58188.94;10393035;28;20374;-85
2024/01/28 21:46:29;;;;;;;0.15;0.15;;;;;;;-146.30;100.00;58188.94;10386011;28;20064;-84
2024/01/28 21:51:31;;;;;;;1.15;0.52;;;;;;;-146.30;100.00;58188.94;10378934;28;20042;-85
2024/01/28 21:56:33;;;;;;;0.00;0.00;;;;;;;-146.30;100.00;58188.94;10373417;28;20493;-84
2024/01/28 22:01:35;;;;;;;0.90;0.40;;;;;;;-146.30;100.00;58188.94;10377130;28;20161;-85
2024/01/28 22:06:36;;;;;;;0.28;0.13;;;;;;;-146.30;100.00;58188.94;10344543;28;20156;-85
2024/01/28 22:11:39;;;;;;;0.00;0.00;;;;;;;-146.30;100.00;58188.94;10367764;28;20054;-85
2024/01/28 22:16:41;;;;;;;0.00;0.00;;;;;;;-146.30;100.00;58188.94;10367210;28;20445;-85
2024/01/28 22:21:43;;;;;;;0.10;0.10;;;;;;;-146.30;100.00;58188.94;10390829;28;20132;-85
2024/01/28 22:26:44;;;;;;;0.52;0.40;;;;;;;-146.30;100.00;58188.94;10371355;28;20312;-86
2024/01/28 22:31:46;;;;;;;0.32;0.22;;;;;;;-146.30;100.00;58188.94;10359882;28;20124;-86
2024/01/28 22:36:48;;;;;;;0.10;0.10;;;;;;;-146.30;100.00;58188.94;10350695;28;20073;-85